createdAt,value
2023-03-29T00:01:46.083Z,100807.80
2023-03-29T00:04:16.034Z,100799.91
2023-03-29T00:06:48.038Z,100797.18
2023-03-29T00:09:16.666Z,100803.41
2023-03-29T00:11:45.603Z,100806.06
2023-03-29T00:14:14.277Z,100807.13
2023-03-29T00:16:44.884Z,100809.86
2023-03-29T00:19:13.311Z,100809.70
2023-03-29T00:21:41.650Z,100805.83
2023-03-29T00:24:10.053Z,100803.80
2023-03-29T00:26:38.671Z,100800.02
2023-03-29T00:29:06.886Z,100798.08
2023-03-29T00:31:35.277Z,100797.16
2023-03-29T00:34:03.637Z,100796.66
2023-03-29T00:36:31.933Z,100794.83
2023-03-29T00:39:00.229Z,100791.97
2023-03-29T00:41:29.490Z,100791.92
2023-03-29T00:44:03.762Z,100794.74
2023-03-29T00:46:32.575Z,100789.95
2023-03-29T00:49:09.756Z,100789.62
2023-03-29T00:51:41.643Z,100786.59
2023-03-29T00:54:15.348Z,100787.52
2023-03-29T00:56:48.231Z,100787.14
2023-03-29T00:59:21.860Z,100784.92
2023-03-29T01:01:54.963Z,100784.79
2023-03-29T01:04:29.661Z,100783.84
2023-03-29T01:07:07.530Z,100783.42
2023-03-29T01:09:38.374Z,100775.92
2023-03-29T01:12:17.352Z,100772.36
2023-03-29T01:14:58.836Z,100763.55
2023-03-29T01:17:27.277Z,100760.66
2023-03-29T01:20:14.241Z,100762.38
2023-03-29T01:23:04.544Z,100757.58
2023-03-29T01:25:54.411Z,100754.27
2023-03-29T01:28:30.046Z,100752.06
2023-03-29T01:31:09.360Z,100749.48
2023-03-29T01:33:52.387Z,100746.00
2023-03-29T01:36:35.166Z,100741.96
2023-03-29T01:39:06.197Z,100736.33
2023-03-29T01:41:48.458Z,100733.47
2023-03-29T01:44:27.728Z,100728.58
2023-03-29T01:47:21.252Z,100726.50
2023-03-29T01:50:13.295Z,100721.73
2023-03-29T01:52:54.123Z,100715.89
2023-03-29T01:55:33.532Z,100717.64
2023-03-29T01:58:05.204Z,100712.91
2023-03-29T02:00:36.499Z,100714.69
2023-03-29T02:03:08.512Z,100714.70
2023-03-29T02:05:39.758Z,100712.80
2023-03-29T02:08:11.367Z,100712.59
2023-03-29T02:10:40.794Z,100710.61
2023-03-29T02:13:09.014Z,100708.38
2023-03-29T02:15:37.685Z,100707.29
2023-03-29T02:18:07.052Z,100713.05
2023-03-29T02:20:42.079Z,100709.77
2023-03-29T02:23:24.716Z,100705.94
2023-03-29T02:25:54.379Z,100704.85
2023-03-29T02:28:24.975Z,100697.22
2023-03-29T02:31:13.138Z,100691.25
2023-03-29T02:33:52.311Z,100686.98
2023-03-29T02:36:29.636Z,100689.69
2023-03-29T02:39:00.955Z,100686.38
2023-03-29T02:41:29.262Z,100687.29
2023-03-29T02:43:59.481Z,100686.63
2023-03-29T02:46:28.518Z,100682.19
2023-03-29T02:48:58.964Z,100679.11
2023-03-29T02:51:34.266Z,100669.98
2023-03-29T02:54:21.983Z,100668.39
2023-03-29T02:56:57.947Z,100667.86
2023-03-29T02:59:27.466Z,100666.03
2023-03-29T03:01:56.019Z,100660.27
2023-03-29T03:04:25.725Z,100652.02
2023-03-29T03:06:54.459Z,100643.21
2023-03-29T03:09:22.790Z,100635.38
2023-03-29T03:11:52.127Z,100636.72
2023-03-29T03:14:23.155Z,100633.45
2023-03-29T03:16:53.056Z,100639.88
2023-03-29T03:19:22.627Z,100631.75
2023-03-29T03:21:51.284Z,100631.32
2023-03-29T03:24:19.569Z,100627.45
2023-03-29T03:26:47.829Z,100625.16
2023-03-29T03:29:16.520Z,100620.06
2023-03-29T03:31:45.182Z,100614.32
2023-03-29T03:34:13.479Z,100614.70
2023-03-29T03:36:41.697Z,100614.85
2023-03-29T03:39:10.079Z,100617.55
2023-03-29T03:41:38.453Z,100618.83
2023-03-29T03:44:07.082Z,100617.92
2023-03-29T03:46:35.441Z,100616.50
2023-03-29T03:49:04.788Z,100614.23
2023-03-29T03:51:33.067Z,100612.64
2023-03-29T03:54:01.366Z,100614.27
2023-03-29T03:56:30.082Z,100611.92
2023-03-29T03:58:58.631Z,100610.13
2023-03-29T04:01:27.612Z,100611.41
2023-03-29T04:03:56.098Z,100608.60
2023-03-29T04:06:25.645Z,100597.64
2023-03-29T04:08:53.950Z,100595.83
2023-03-29T04:11:22.242Z,100597.86
2023-03-29T04:13:50.616Z,100600.89
2023-03-29T04:16:18.906Z,100598.13
2023-03-29T04:18:47.486Z,100592.55
2023-03-29T04:21:17.836Z,100594.41
2023-03-29T04:23:49.095Z,100594.11
2023-03-29T04:26:18.318Z,100596.16
2023-03-29T04:28:46.711Z,100591.05
2023-03-29T04:31:15.617Z,100591.61
2023-03-29T04:33:46.943Z,100584.83
2023-03-29T04:36:16.212Z,100582.86
2023-03-29T04:38:47.330Z,100574.15
2023-03-29T04:41:16.239Z,100571.65
2023-03-29T04:43:46.850Z,100570.94
2023-03-29T04:46:15.657Z,100571.91
2023-03-29T04:48:44.162Z,100570.66
2023-03-29T04:51:12.952Z,100575.75
2023-03-29T04:53:41.966Z,100575.29
2023-03-29T04:56:14.553Z,100579.41
2023-03-29T04:58:44.474Z,100573.30
2023-03-29T05:01:12.891Z,100566.58
2023-03-29T05:03:41.399Z,100572.86
2023-03-29T05:06:12.221Z,100566.10
2023-03-29T05:08:41.858Z,100565.44
2023-03-29T05:11:11.856Z,100560.38
2023-03-29T05:13:40.646Z,100559.70
2023-03-29T05:16:11.382Z,100557.70
2023-03-29T05:18:39.751Z,100552.44
2023-03-29T05:21:08.047Z,100555.12
2023-03-29T05:23:36.396Z,100551.18
2023-03-29T05:26:05.402Z,100550.29
2023-03-29T05:28:33.968Z,100552.05
2023-03-29T05:31:05.982Z,100547.30
2023-03-29T05:33:35.715Z,100547.84
2023-03-29T05:36:05.908Z,100548.73
2023-03-29T05:38:35.082Z,100548.88
2023-03-29T05:41:03.928Z,100548.38
2023-03-29T05:43:33.723Z,100544.77
2023-03-29T05:46:02.145Z,100546.49
2023-03-29T05:48:30.375Z,100541.31
2023-03-29T05:50:59.316Z,100540.63
2023-03-29T05:53:28.506Z,100540.89
2023-03-29T05:55:56.733Z,100537.97
2023-03-29T05:58:26.847Z,100541.89
2023-03-29T06:00:55.442Z,100542.02
2023-03-29T06:03:28.336Z,100539.05
2023-03-29T06:06:02.588Z,100540.52
2023-03-29T06:08:32.524Z,100537.73
2023-03-29T06:11:04.616Z,100540.25
2023-03-29T06:13:34.547Z,100535.13
2023-03-29T06:16:04.556Z,100531.65
2023-03-29T06:18:33.604Z,100530.89
2023-03-29T06:21:03.141Z,100528.10
2023-03-29T06:23:32.259Z,100528.15
2023-03-29T06:26:00.673Z,100529.65
2023-03-29T06:28:29.071Z,100522.11
2023-03-29T06:31:03.835Z,100520.73
2023-03-29T06:33:34.301Z,100522.77
2023-03-29T06:36:02.613Z,100524.49
2023-03-29T06:38:31.245Z,100521.91
2023-03-29T06:41:04.567Z,100519.30
2023-03-29T06:43:33.453Z,100519.14
2023-03-29T06:46:02.079Z,100519.80
2023-03-29T06:48:30.670Z,100517.30
2023-03-29T06:50:58.926Z,100515.59
2023-03-29T06:53:28.343Z,100512.32
2023-03-29T06:55:56.639Z,100514.56
2023-03-29T06:58:25.013Z,100515.02
2023-03-29T07:00:54.084Z,100513.30
2023-03-29T07:03:24.493Z,100519.14
2023-03-29T07:05:53.199Z,100519.94
2023-03-29T07:08:22.635Z,100519.14
2023-03-29T07:10:53.593Z,100514.20
2023-03-29T07:13:23.892Z,100511.75
2023-03-29T07:15:52.718Z,100512.27
2023-03-29T07:18:21.385Z,100508.30
2023-03-29T07:20:50.122Z,100511.23
2023-03-29T07:23:18.562Z,100506.55
2023-03-29T07:25:47.261Z,100509.35
2023-03-29T07:28:15.502Z,100502.69
2023-03-29T07:30:43.800Z,100501.67
2023-03-29T07:33:12.583Z,100497.94
2023-03-29T07:35:43.962Z,100496.62
2023-03-29T07:38:12.377Z,100489.70
2023-03-29T07:40:41.004Z,100488.66
2023-03-29T07:43:11.222Z,100488.95
2023-03-29T07:45:42.672Z,100490.96
2023-03-29T07:48:11.179Z,100491.02
2023-03-29T07:50:39.500Z,100490.52
2023-03-29T07:53:07.742Z,100489.69
2023-03-29T07:55:36.155Z,100487.46
2023-03-29T07:58:04.555Z,100485.16
2023-03-29T08:00:34.347Z,100487.36
2023-03-29T08:03:04.041Z,100490.10
2023-03-29T08:05:40.678Z,100487.05
2023-03-29T08:08:10.224Z,100488.39
2023-03-29T08:10:39.693Z,100486.27
2023-03-29T08:13:09.774Z,100489.23
2023-03-29T08:15:39.635Z,100489.10
2023-03-29T08:18:08.534Z,100480.64
2023-03-29T08:20:37.037Z,100479.63
2023-03-29T08:23:05.418Z,100479.28
2023-03-29T08:25:35.372Z,100478.94
2023-03-29T08:28:03.828Z,100478.91
2023-03-29T08:30:32.153Z,100473.84
2023-03-29T08:33:00.518Z,100468.95
2023-03-29T08:35:28.875Z,100471.33
2023-03-29T08:37:57.101Z,100472.31
2023-03-29T08:40:31.444Z,100474.70
2023-03-29T08:43:02.400Z,100471.77
2023-03-29T08:45:39.740Z,100466.65
2023-03-29T08:48:28.992Z,100472.70
2023-03-29T08:51:06.100Z,100464.60
2023-03-29T08:53:38.749Z,100465.28
2023-03-29T08:56:15.545Z,100454.70
2023-03-29T08:58:45.900Z,100454.16
2023-03-29T09:01:14.599Z,100454.83
2023-03-29T09:04:14.998Z,100449.59
2023-03-29T09:06:43.288Z,100449.95
2023-03-29T09:09:33.124Z,100448.11
2023-03-29T09:12:16.844Z,100439.48
2023-03-29T09:14:57.370Z,100441.79
2023-03-29T09:17:32.651Z,100438.56
2023-03-29T09:20:27.755Z,100440.99
2023-03-29T09:23:07.130Z,100447.42
2023-03-29T09:25:53.432Z,100443.62
2023-03-29T09:28:47.841Z,100445.16
2023-03-29T09:31:30.439Z,100444.05
2023-03-29T09:34:14.380Z,100443.54
2023-03-29T09:36:43.537Z,100444.21
2023-03-29T09:39:14.700Z,100441.77
2023-03-29T09:41:50.830Z,100436.90
2023-03-29T09:44:31.808Z,100431.36
2023-03-29T09:47:09.281Z,100427.06
2023-03-29T09:49:42.375Z,100421.66
2023-03-29T09:52:14.536Z,100418.69
2023-03-29T09:54:43.572Z,100421.02
2023-03-29T09:57:14.150Z,100413.13
2023-03-29T09:59:44.804Z,100408.52
2023-03-29T10:02:14.682Z,100408.09
2023-03-29T10:04:43.171Z,100403.48
2023-03-29T10:07:20.967Z,100398.21
2023-03-29T10:09:52.196Z,100399.69
2023-03-29T10:12:21.077Z,100395.39
2023-03-29T10:14:54.023Z,100389.53
2023-03-29T10:17:25.578Z,100387.81
2023-03-29T10:20:09.670Z,100389.43
2023-03-29T10:22:40.742Z,100381.53
2023-03-29T10:25:18.589Z,100376.57
2023-03-29T10:27:48.183Z,100375.04
2023-03-29T10:30:23.328Z,100376.96
2023-03-29T10:33:00.414Z,100379.65
2023-03-29T10:35:33.975Z,100381.60
2023-03-29T10:38:07.888Z,100376.27
2023-03-29T10:40:51.992Z,100372.55
2023-03-29T10:43:20.279Z,100370.36
2023-03-29T10:45:51.150Z,100370.45
2023-03-29T10:48:35.048Z,100370.38
2023-03-29T10:51:08.272Z,100365.48
2023-03-29T10:53:38.416Z,100360.11
2023-03-29T10:56:15.465Z,100354.40
2023-03-29T10:59:05.405Z,100351.11
2023-03-29T11:02:00.371Z,100350.91
2023-03-29T11:04:47.862Z,100347.30
2023-03-29T11:07:34.855Z,100342.44
2023-03-29T11:10:48.436Z,100340.23
2023-03-29T11:13:22.139Z,100339.77
2023-03-29T11:16:02.864Z,100335.14
2023-03-29T11:18:45.978Z,100331.91
2023-03-29T11:21:41.857Z,100328.45
2023-03-29T11:24:22.186Z,100323.04
2023-03-29T11:27:13.276Z,100322.33
2023-03-29T11:29:49.289Z,100318.36
2023-03-29T11:32:34.856Z,100316.48
2023-03-29T11:35:25.019Z,100317.54
2023-03-29T11:38:02.374Z,100312.73
2023-03-29T11:40:59.607Z,100311.88
2023-03-29T11:43:32.343Z,100305.67
2023-03-29T11:46:22.202Z,100301.32
2023-03-29T11:49:12.186Z,100295.39
2023-03-29T11:51:57.236Z,100294.88
2023-03-29T11:54:45.975Z,100289.79
2023-03-29T11:57:40.774Z,100284.45
2023-03-29T12:00:58.646Z,100281.25
2023-03-29T12:04:01.989Z,100276.35
2023-03-29T12:06:41.635Z,100271.55
2023-03-29T12:09:26.800Z,100268.29
2023-03-29T12:12:03.496Z,100269.15
2023-03-29T12:14:49.739Z,100266.83
2023-03-29T12:17:24.445Z,100261.46
2023-03-29T12:20:05.500Z,100259.95
2023-03-29T12:22:34.117Z,100258.92
2023-03-29T12:25:06.961Z,100257.11
2023-03-29T12:28:03.530Z,100258.23
2023-03-29T12:30:59.610Z,100249.98
2023-03-29T12:34:00.591Z,100248.52
2023-03-29T12:37:00.659Z,100243.55
2023-03-29T12:39:31.237Z,100242.10
2023-03-29T12:42:25.626Z,100233.65
2023-03-29T12:45:01.886Z,100231.55
2023-03-29T12:47:43.304Z,100233.89
2023-03-29T12:50:35.733Z,100230.94
2023-03-29T12:53:08.351Z,100227.27
2023-03-29T12:55:43.796Z,100223.34
2023-03-29T12:58:39.799Z,100216.14
2023-03-29T13:01:22.056Z,100212.05
2023-03-29T13:03:55.928Z,100212.98
2023-03-29T13:06:32.093Z,100209.52
2023-03-29T13:09:02.133Z,100206.74
2023-03-29T13:11:41.555Z,100205.06
2023-03-29T13:14:21.986Z,100199.90
2023-03-29T13:16:50.569Z,100190.37
2023-03-29T13:19:49.860Z,100193.04
2023-03-29T13:22:24.580Z,100198.15
2023-03-29T13:25:16.383Z,100189.63
2023-03-29T13:27:52.773Z,100190.37
2023-03-29T13:30:33.566Z,100185.30
2023-03-29T13:33:20.139Z,100190.73
2023-03-29T13:36:16.781Z,100187.23
2023-03-29T13:38:52.581Z,100177.44
2023-03-29T13:41:29.110Z,100178.30
2023-03-29T13:43:58.969Z,100172.56
2023-03-29T13:46:41.696Z,100167.69
2023-03-29T13:49:20.663Z,100174.01
2023-03-29T13:52:16.652Z,100170.37
2023-03-29T13:55:07.558Z,100164.93
2023-03-29T13:57:49.693Z,100153.76
2023-03-29T14:00:29.231Z,100157.79
2023-03-29T14:03:05.501Z,100157.45
2023-03-29T14:05:44.415Z,100154.30
2023-03-29T14:08:23.715Z,100158.32
2023-03-29T14:10:53.831Z,100154.11
2023-03-29T14:13:25.403Z,100149.39
2023-03-29T14:15:57.567Z,100147.98
2023-03-29T14:18:28.249Z,100144.32
2023-03-29T14:20:57.045Z,100145.01
2023-03-29T14:23:30.464Z,100149.52
2023-03-29T14:26:19.146Z,100150.20
2023-03-29T14:28:48.987Z,100145.98
2023-03-29T14:31:21.069Z,100146.31
2023-03-29T14:33:57.756Z,100142.45
2023-03-29T14:36:27.848Z,100138.27
2023-03-29T14:39:11.675Z,100138.77
2023-03-29T14:41:42.544Z,100137.71
2023-03-29T14:44:14.151Z,100131.23
2023-03-29T14:46:44.448Z,100124.59
2023-03-29T14:49:16.897Z,100128.08
2023-03-29T14:51:47.008Z,100125.77
2023-03-29T14:54:22.502Z,100120.33
2023-03-29T14:56:51.817Z,100123.13
2023-03-29T14:59:39.170Z,100122.23
2023-03-29T15:02:28.832Z,100122.55
2023-03-29T15:05:00.172Z,100120.60
2023-03-29T15:07:30.096Z,100114.83
2023-03-29T15:09:59.651Z,100115.00
2023-03-29T15:12:32.799Z,100111.50
2023-03-29T15:15:02.871Z,100106.08
2023-03-29T15:17:51.135Z,100102.40
2023-03-29T15:20:30.092Z,100106.60
2023-03-29T15:23:09.933Z,100098.20
2023-03-29T15:25:39.682Z,100104.83
2023-03-29T15:28:28.503Z,100101.14
2023-03-29T15:31:12.182Z,100100.95
2023-03-29T15:33:41.925Z,100100.41
2023-03-29T15:36:12.729Z,100102.33
2023-03-29T15:38:45.142Z,100102.33
2023-03-29T15:41:14.793Z,100107.38
2023-03-29T15:43:43.538Z,100106.15
2023-03-29T15:46:14.930Z,100104.17
2023-03-29T15:48:43.710Z,100102.77
2023-03-29T15:51:12.824Z,100103.45
2023-03-29T15:53:41.411Z,100099.92
2023-03-29T15:56:16.043Z,100099.91
2023-03-29T15:58:44.976Z,100108.97
2023-03-29T16:01:39.737Z,100107.54
2023-03-29T16:04:14.528Z,100104.55
2023-03-29T16:06:45.208Z,100101.55
2023-03-29T16:09:13.486Z,100105.89
2023-03-29T16:11:43.820Z,100104.13
2023-03-29T16:14:17.019Z,100097.81
2023-03-29T16:16:45.334Z,100092.36
2023-03-29T16:19:13.732Z,100090.75
2023-03-29T16:21:43.381Z,100091.23
2023-03-29T16:24:17.845Z,100089.64
2023-03-29T16:26:47.216Z,100085.24
2023-03-29T16:29:17.513Z,100085.40
2023-03-29T16:31:47.493Z,100086.06
2023-03-29T16:34:16.479Z,100084.63
2023-03-29T16:36:45.962Z,100086.54
2023-03-29T16:39:15.300Z,100084.95
2023-03-29T16:41:45.388Z,100080.55
2023-03-29T16:44:15.537Z,100078.45
2023-03-29T16:46:45.002Z,100078.21
2023-03-29T16:49:18.266Z,100079.77
2023-03-29T16:51:47.565Z,100073.48
2023-03-29T16:54:17.477Z,100075.89
2023-03-29T16:56:45.972Z,100071.51
2023-03-29T16:59:14.379Z,100070.10
2023-03-29T17:01:42.997Z,100068.86
2023-03-29T17:04:11.782Z,100071.98
2023-03-29T17:06:39.977Z,100068.64
2023-03-29T17:09:09.798Z,100067.58
2023-03-29T17:11:38.225Z,100063.90
2023-03-29T17:14:07.165Z,100065.98
2023-03-29T17:16:36.009Z,100063.87
2023-03-29T17:19:04.449Z,100064.38
2023-03-29T17:21:32.666Z,100069.42
2023-03-29T17:24:01.060Z,100071.49
2023-03-29T17:26:29.362Z,100065.55
2023-03-29T17:28:57.762Z,100063.97
2023-03-29T17:31:26.369Z,100071.09
2023-03-29T17:33:55.237Z,100067.22
2023-03-29T17:36:25.272Z,100065.46
2023-03-29T17:39:02.456Z,100065.61
2023-03-29T17:41:31.421Z,100065.09
2023-03-29T17:43:59.910Z,100058.98
2023-03-29T17:46:28.554Z,100058.64
2023-03-29T17:48:59.222Z,100059.31
2023-03-29T17:51:27.946Z,100051.98
2023-03-29T17:53:57.416Z,100053.36
2023-03-29T17:56:26.789Z,100054.73
2023-03-29T17:58:55.266Z,100051.58
2023-03-29T18:01:23.708Z,100057.65
2023-03-29T18:03:59.656Z,100056.77
2023-03-29T18:06:27.983Z,100056.94
2023-03-29T18:09:01.720Z,100055.86
2023-03-29T18:11:31.607Z,100058.98
2023-03-29T18:14:01.245Z,100062.29
2023-03-29T18:16:29.743Z,100065.57
2023-03-29T18:18:58.173Z,100071.81
2023-03-29T18:21:27.724Z,100068.67
2023-03-29T18:23:57.008Z,100065.54
2023-03-29T18:26:25.990Z,100070.22
2023-03-29T18:28:54.421Z,100070.04
2023-03-29T18:31:22.881Z,100068.80
2023-03-29T18:33:51.639Z,100071.59
2023-03-29T18:36:25.524Z,100069.48
2023-03-29T18:38:56.224Z,100067.21
2023-03-29T18:41:24.596Z,100067.53
2023-03-29T18:43:54.938Z,100068.03
2023-03-29T18:46:23.783Z,100068.02
2023-03-29T18:48:53.528Z,100066.59
2023-03-29T18:51:23.302Z,100065.18
2023-03-29T18:53:53.141Z,100065.88
2023-03-29T18:56:21.589Z,100059.41
2023-03-29T18:58:49.821Z,100060.77
2023-03-29T19:01:18.550Z,100059.54
2023-03-29T19:03:49.416Z,100061.95
2023-03-29T19:06:19.515Z,100061.44
2023-03-29T19:08:47.899Z,100063.91
2023-03-29T19:11:16.420Z,100064.29
2023-03-29T19:13:46.945Z,100062.74
2023-03-29T19:16:16.147Z,100061.52
2023-03-29T19:18:44.815Z,100063.26
2023-03-29T19:21:13.240Z,100060.45
2023-03-29T19:23:41.994Z,100063.05
2023-03-29T19:26:11.729Z,100061.98
2023-03-29T19:28:40.141Z,100063.55
2023-03-29T19:31:08.465Z,100057.95
2023-03-29T19:33:36.786Z,100061.93
2023-03-29T19:36:06.145Z,100056.67
2023-03-29T19:38:34.928Z,100057.56
2023-03-29T19:41:10.395Z,100057.03
2023-03-29T19:43:38.747Z,100057.76
2023-03-29T19:46:10.694Z,100052.20
2023-03-29T19:48:41.947Z,100052.02
2023-03-29T19:51:10.354Z,100050.45
2023-03-29T19:53:39.875Z,100048.73
2023-03-29T19:56:11.192Z,100048.89
2023-03-29T19:58:39.670Z,100048.02
2023-03-29T20:01:08.054Z,100046.79
2023-03-29T20:03:36.643Z,100043.64
2023-03-29T20:06:05.496Z,100043.63
2023-03-29T20:08:36.458Z,100045.19
2023-03-29T20:11:10.649Z,100040.15
2023-03-29T20:13:42.066Z,100041.02
2023-03-29T20:16:16.162Z,100045.41
2023-03-29T20:18:45.689Z,100044.02
2023-03-29T20:21:17.123Z,100041.59
2023-03-29T20:23:46.038Z,100042.10
2023-03-29T20:26:14.474Z,100042.42
2023-03-29T20:28:42.832Z,100039.98
2023-03-29T20:31:11.202Z,100035.59
2023-03-29T20:33:41.507Z,100030.69
2023-03-29T20:36:11.043Z,100028.41
2023-03-29T20:38:39.423Z,100026.48
2023-03-29T20:41:09.548Z,100025.25
2023-03-29T20:43:38.133Z,100018.67
2023-03-29T20:46:15.095Z,100012.96
2023-03-29T20:48:53.476Z,100012.95
2023-03-29T20:51:28.417Z,100009.30
2023-03-29T20:54:04.996Z,100009.47
2023-03-29T20:56:40.026Z,100003.18
2023-03-29T20:59:11.004Z,100002.48
2023-03-29T21:01:41.092Z,100002.96
2023-03-29T21:04:11.213Z,99996.70
2023-03-29T21:06:39.935Z,99995.11
2023-03-29T21:09:08.777Z,99994.70
2023-03-29T21:11:37.700Z,99991.39
2023-03-29T21:14:06.176Z,99988.42
2023-03-29T21:16:34.587Z,99986.52
2023-03-29T21:19:02.821Z,99987.05
2023-03-29T21:21:31.128Z,99987.59
2023-03-29T21:23:59.484Z,99981.50
2023-03-29T21:26:28.248Z,99982.71
2023-03-29T21:28:56.517Z,99983.05
2023-03-29T21:31:25.062Z,99979.73
2023-03-29T21:33:56.461Z,99978.66
2023-03-29T21:36:25.703Z,99979.69
2023-03-29T21:38:54.178Z,99978.28
2023-03-29T21:41:22.704Z,99978.61
2023-03-29T21:43:51.307Z,99976.53
2023-03-29T21:46:19.718Z,99971.50
2023-03-29T21:48:48.015Z,99972.70
2023-03-29T21:51:16.265Z,99972.35
2023-03-29T21:53:44.551Z,99974.09
2023-03-29T21:56:13.278Z,99974.44
2023-03-29T21:58:42.052Z,99971.14
2023-03-29T22:01:11.045Z,99967.28
2023-03-29T22:03:39.479Z,99968.31
2023-03-29T22:06:09.796Z,99964.48
2023-03-29T22:08:39.159Z,99959.80
2023-03-29T22:11:11.121Z,99962.44
2023-03-29T22:13:39.931Z,99959.13
2023-03-29T22:16:09.106Z,99954.26
2023-03-29T22:18:49.760Z,99953.22
2023-03-29T22:21:26.864Z,99951.13
2023-03-29T22:23:56.709Z,99947.29
2023-03-29T22:26:28.472Z,99946.75
2023-03-29T22:28:59.099Z,99947.24
2023-03-29T22:31:29.381Z,99943.42
2023-03-29T22:33:58.826Z,99944.65
2023-03-29T22:36:29.392Z,99938.92
2023-03-29T22:38:58.485Z,99936.66
2023-03-29T22:41:28.359Z,99931.80
2023-03-29T22:43:58.677Z,99932.33
2023-03-29T22:46:27.808Z,99931.63
2023-03-29T22:48:56.570Z,99936.13
2023-03-29T22:51:24.862Z,99936.66
2023-03-29T22:53:53.432Z,99936.84
2023-03-29T22:56:22.193Z,99938.08
2023-03-29T22:58:50.788Z,99922.38
2023-03-29T23:02:19.959Z,99930.63
2023-03-29T23:06:09.502Z,99930.46
2023-03-29T23:09:58.846Z,99925.90
2023-03-29T23:13:49.496Z,99920.85
2023-03-29T23:32:49.084Z,99912.08
2023-03-29T23:36:38.335Z,99909.77
2023-03-29T23:40:33.999Z,99904.19
2023-03-29T23:56:14.441Z,99896.48
